createdAt,value
2019-03-01T00:01:17.832Z,7.33
2019-03-01T00:03:50.002Z,7.17
2019-03-01T00:06:22.566Z,6.97
2019-03-01T00:09:31.841Z,7.43
2019-03-01T00:12:28.667Z,7.70
2019-03-01T00:15:28.664Z,6.57
2019-03-01T00:18:39.797Z,6.97
2019-03-01T00:21:38.239Z,8.30
2019-03-01T00:24:39.844Z,7.90
2019-03-01T00:28:04.402Z,6.87
2019-03-01T00:31:14.640Z,5.90
2019-03-01T00:33:58.389Z,7.00
2019-03-01T00:37:02.017Z,6.03
2019-03-01T00:39:48.815Z,6.70
2019-03-01T00:43:11.124Z,5.83
2019-03-01T00:45:41.726Z,6.47
2019-03-01T00:48:10.658Z,6.33
2019-03-01T00:50:39.507Z,5.17
2019-03-01T00:53:08.480Z,4.90
2019-03-01T00:55:37.438Z,5.00
2019-03-01T00:58:06.421Z,4.43
2019-03-01T01:00:39.827Z,4.07
2019-03-01T01:03:08.733Z,4.80
2019-03-01T01:05:37.722Z,4.73
2019-03-01T01:08:06.651Z,3.77
2019-03-01T01:10:35.605Z,3.77
2019-03-01T01:13:04.557Z,3.07
2019-03-01T01:15:33.350Z,4.00
2019-03-01T01:18:02.297Z,3.10
2019-03-01T01:20:31.246Z,4.57
2019-03-01T01:23:00.080Z,3.60
2019-03-01T01:25:29.002Z,3.33
2019-03-01T01:27:57.900Z,4.00
2019-03-01T01:30:26.896Z,4.17
2019-03-01T01:32:55.723Z,3.83
2019-03-01T01:35:27.674Z,4.10
2019-03-01T01:37:56.629Z,3.50
2019-03-01T01:40:25.422Z,3.33
2019-03-01T01:42:54.332Z,3.90
2019-03-01T01:45:23.248Z,4.50
2019-03-01T01:47:52.194Z,3.13
2019-03-01T01:50:21.061Z,4.03
2019-03-01T01:52:49.882Z,3.47
2019-03-01T01:55:18.886Z,3.70
2019-03-01T01:57:47.889Z,3.83
2019-03-01T02:00:17.163Z,4.33
2019-03-01T02:02:46.250Z,3.30
2019-03-01T02:05:15.271Z,3.57
2019-03-01T02:07:44.147Z,3.70
2019-03-01T02:10:13.301Z,3.70
2019-03-01T02:12:42.308Z,3.63
2019-03-01T02:15:12.710Z,3.20
2019-03-01T02:17:41.589Z,3.17
2019-03-01T02:20:10.982Z,3.50
2019-03-01T02:22:39.940Z,3.10
2019-03-01T02:25:10.085Z,3.00
2019-03-01T02:27:39.065Z,3.73
2019-03-01T02:30:16.672Z,2.90
2019-03-01T02:32:49.806Z,3.23
2019-03-01T02:35:21.026Z,3.27
2019-03-01T02:37:49.888Z,3.60
2019-03-01T02:40:19.360Z,3.37
2019-03-01T02:42:48.261Z,3.53
2019-03-01T02:45:18.824Z,4.15
2019-03-01T02:47:47.812Z,3.90
2019-03-01T02:50:17.523Z,4.33
2019-03-01T02:52:46.791Z,4.50
2019-03-01T02:55:16.938Z,4.20
2019-03-01T02:57:46.030Z,3.83
2019-03-01T03:00:20.067Z,4.10
2019-03-01T03:02:48.991Z,5.10
2019-03-01T03:05:17.942Z,5.03
2019-03-01T03:07:51.735Z,5.00
2019-03-01T03:10:20.724Z,4.97
2019-03-01T03:12:50.645Z,5.50
2019-03-01T03:15:25.213Z,4.87
2019-03-01T03:17:54.023Z,5.60
2019-03-01T03:20:22.937Z,6.50
2019-03-01T03:22:51.791Z,5.90
2019-03-01T03:25:20.590Z,5.73
2019-03-01T03:27:49.443Z,5.37
2019-03-01T03:30:18.773Z,6.07
2019-03-01T03:32:47.632Z,5.83
2019-03-01T03:35:16.502Z,5.77
2019-03-01T03:37:45.316Z,6.57
2019-03-01T03:40:14.466Z,7.12
2019-03-01T03:42:43.445Z,6.90
2019-03-01T03:45:12.800Z,7.03
2019-03-01T03:47:41.779Z,7.03
2019-03-01T03:50:11.772Z,7.50
2019-03-01T03:52:40.650Z,7.53
2019-03-01T03:55:11.611Z,7.93
2019-03-01T03:57:40.757Z,8.17
2019-03-01T04:00:13.490Z,8.37
2019-03-01T04:02:42.583Z,7.37
2019-03-01T04:05:11.796Z,7.97
2019-03-01T04:07:40.774Z,7.53
2019-03-01T04:10:10.073Z,7.43
2019-03-01T04:12:38.960Z,6.90
2019-03-01T04:15:09.394Z,7.43
2019-03-01T04:17:38.284Z,7.70
2019-03-01T04:20:09.122Z,7.73
2019-03-01T04:22:38.112Z,7.37
2019-03-01T04:25:07.544Z,7.60
2019-03-01T04:27:36.519Z,7.77
2019-03-01T04:30:07.496Z,8.53
2019-03-01T04:32:36.334Z,6.60
2019-03-01T04:35:05.714Z,8.20
2019-03-01T04:37:34.489Z,6.83
2019-03-01T04:40:03.504Z,7.50
2019-03-01T04:42:32.373Z,7.93
2019-03-01T04:45:01.314Z,6.57
2019-03-01T04:47:30.213Z,6.60
2019-03-01T04:49:59.200Z,6.40
2019-03-01T04:52:30.101Z,6.27
2019-03-01T04:54:59.050Z,7.37
2019-03-01T04:57:27.998Z,6.40
2019-03-01T04:59:57.102Z,7.30
2019-03-01T05:02:26.228Z,5.93
2019-03-01T05:04:55.172Z,7.17
2019-03-01T05:07:24.083Z,7.40
2019-03-01T05:09:53.030Z,8.07
2019-03-01T05:12:21.975Z,7.87
2019-03-01T05:14:50.963Z,7.80
2019-03-01T05:17:19.888Z,7.97
2019-03-01T05:19:48.714Z,7.60
2019-03-01T05:22:17.741Z,7.43
2019-03-01T05:24:46.642Z,6.57
2019-03-01T05:27:15.630Z,7.17
2019-03-01T05:29:44.503Z,8.33
2019-03-01T05:32:13.477Z,7.43
2019-03-01T05:34:42.264Z,7.87
2019-03-01T05:37:11.233Z,7.57
2019-03-01T05:39:40.057Z,7.80
2019-03-01T05:42:09.167Z,7.87
2019-03-01T05:44:38.049Z,10.20
2019-03-01T05:47:06.933Z,9.17
2019-03-01T05:49:35.813Z,7.83
2019-03-01T05:52:04.813Z,8.70
2019-03-01T05:54:35.027Z,8.57
2019-03-01T05:57:03.965Z,10.17
2019-03-01T05:59:32.801Z,9.30
2019-03-01T06:02:45.704Z,8.60
2019-03-01T06:05:25.016Z,10.10
2019-03-01T06:08:47.411Z,9.97
2019-03-01T06:11:38.220Z,7.93
2019-03-01T06:15:00.375Z,9.60
2019-03-01T06:18:19.559Z,9.63
2019-03-01T06:21:18.654Z,8.70
2019-03-01T06:24:19.370Z,9.50
2019-03-01T06:27:16.497Z,9.80
2019-03-01T06:30:24.016Z,9.40
2019-03-01T06:33:30.495Z,9.80
2019-03-01T06:36:33.387Z,9.63
2019-03-01T06:40:13.146Z,8.40
2019-03-01T06:42:55.725Z,9.40
2019-03-01T06:45:49.329Z,8.43
2019-03-01T06:48:55.632Z,10.07
2019-03-01T06:51:29.109Z,11.57
2019-03-01T06:53:58.312Z,10.53
2019-03-01T06:56:27.347Z,9.53
2019-03-01T06:58:59.197Z,10.73
2019-03-01T07:01:33.982Z,11.17
2019-03-01T07:04:21.915Z,9.67
2019-03-01T07:06:50.851Z,8.13
2019-03-01T07:09:19.793Z,9.03
2019-03-01T07:11:48.754Z,7.33
2019-03-01T07:14:17.892Z,7.57
2019-03-01T07:16:46.761Z,8.00
2019-03-01T07:19:15.630Z,8.10
2019-03-01T07:21:44.487Z,8.20
2019-03-01T07:24:13.397Z,8.67
2019-03-01T07:26:42.321Z,8.00
2019-03-01T07:29:11.252Z,8.70
2019-03-01T07:31:40.216Z,8.50
2019-03-01T07:34:09.420Z,7.85
2019-03-01T07:36:38.351Z,7.03
2019-03-01T07:39:09.694Z,6.50
2019-03-01T07:41:38.633Z,7.77
2019-03-01T07:44:07.656Z,6.33
2019-03-01T07:46:36.697Z,9.00
2019-03-01T07:49:05.661Z,6.77
2019-03-01T07:51:35.961Z,6.90
2019-03-01T07:54:05.047Z,6.47
2019-03-01T07:56:36.903Z,6.67
2019-03-01T07:59:04.761Z,5.13
2019-03-01T08:01:33.771Z,5.80
2019-03-01T08:04:02.679Z,5.17
2019-03-01T08:06:31.683Z,5.57
2019-03-01T08:09:01.067Z,5.03
2019-03-01T08:11:31.799Z,3.93
2019-03-01T08:14:00.617Z,4.00
2019-03-01T08:16:29.462Z,4.33
2019-03-01T08:18:58.576Z,3.53
2019-03-01T08:21:27.610Z,3.93
2019-03-01T08:23:56.509Z,3.40
2019-03-01T08:26:25.423Z,3.05
2019-03-01T08:28:54.718Z,2.50
2019-03-01T08:31:25.007Z,3.53
2019-03-01T08:33:54.154Z,2.53
2019-03-01T08:36:23.116Z,2.00
2019-03-01T08:38:52.006Z,1.93
2019-03-01T08:41:21.576Z,2.53
2019-03-01T08:43:52.130Z,1.90
2019-03-01T08:46:21.127Z,2.60
2019-03-01T08:48:50.045Z,2.50
2019-03-01T08:51:18.975Z,2.40
2019-03-01T08:53:48.314Z,1.57
2019-03-01T08:56:25.816Z,1.95
2019-03-01T08:58:50.192Z,2.30
2019-03-01T09:01:19.431Z,1.57
2019-03-01T09:03:55.508Z,1.50
2019-03-01T09:06:24.468Z,2.00
2019-03-01T09:08:53.439Z,1.90
2019-03-01T09:11:22.334Z,1.13
2019-03-01T09:13:51.160Z,1.10
2019-03-01T09:16:20.154Z,1.40
2019-03-01T09:18:49.926Z,1.33
2019-03-01T09:21:19.607Z,1.30
2019-03-01T09:23:52.198Z,1.60
2019-03-01T09:26:20.693Z,1.03
2019-03-01T09:28:50.623Z,2.00
2019-03-01T09:31:19.678Z,1.53
2019-03-01T09:33:48.679Z,1.50
2019-03-01T09:36:37.128Z,1.30
2019-03-01T09:39:09.217Z,1.03
2019-03-01T09:41:40.498Z,0.70
2019-03-01T09:44:08.847Z,1.23
2019-03-01T09:46:37.710Z,1.23
2019-03-01T09:49:06.668Z,0.97
2019-03-01T09:51:35.699Z,1.20
2019-03-01T09:54:06.519Z,0.93
2019-03-01T09:56:35.676Z,1.05
2019-03-01T09:59:04.697Z,1.37
2019-03-01T10:01:34.545Z,1.90
2019-03-01T10:04:03.456Z,1.30
2019-03-01T10:06:38.032Z,1.10
2019-03-01T10:09:04.504Z,1.37
2019-03-01T10:11:33.479Z,1.30
2019-03-01T10:14:02.435Z,1.83
2019-03-01T10:16:31.357Z,1.87
2019-03-01T10:19:01.807Z,2.40
2019-03-01T10:21:30.690Z,2.10
2019-03-01T10:23:59.726Z,2.00
2019-03-01T10:26:28.487Z,1.90
2019-03-01T10:28:57.543Z,2.43
2019-03-01T10:31:26.521Z,2.98
2019-03-01T10:33:55.375Z,5.17
2019-03-01T10:36:24.339Z,3.50
2019-03-01T10:38:53.224Z,4.63
2019-03-01T10:41:22.130Z,5.20
2019-03-01T10:43:51.016Z,5.47
2019-03-01T10:46:20.031Z,6.27
2019-03-01T10:48:48.872Z,5.70
2019-03-01T10:51:17.732Z,4.93
2019-03-01T10:53:47.921Z,5.23
2019-03-01T10:56:17.039Z,5.67
2019-03-01T10:58:46.059Z,5.87
2019-03-01T11:01:14.963Z,6.47
2019-03-01T11:03:43.779Z,6.93
2019-03-01T11:06:12.777Z,10.00
2019-03-01T11:08:41.733Z,13.77
2019-03-01T11:13:45.043Z,13.50
2019-03-01T11:16:13.873Z,15.70
2019-03-01T11:18:42.892Z,16.70
2019-03-01T11:21:11.917Z,14.83
2019-03-01T11:23:40.821Z,14.50
2019-03-01T11:26:09.785Z,16.67
2019-03-01T11:28:38.670Z,13.70
2019-03-01T11:31:07.624Z,16.07
2019-03-01T11:33:36.538Z,14.23
2019-03-01T11:36:05.595Z,15.20
2019-03-01T11:38:34.536Z,13.43
2019-03-01T11:41:03.755Z,14.27
2019-03-01T11:43:32.822Z,15.73
2019-03-01T11:46:01.655Z,12.50
2019-03-01T11:48:30.563Z,13.90
2019-03-01T11:51:01.847Z,15.07
2019-03-01T11:53:30.896Z,14.40
2019-03-01T11:55:59.713Z,16.00
2019-03-01T11:58:28.651Z,11.80
2019-03-01T12:00:57.647Z,15.20
2019-03-01T12:03:27.016Z,17.37
2019-03-01T12:05:56.007Z,12.97
2019-03-01T12:08:24.901Z,13.50
2019-03-01T12:10:53.904Z,13.93
2019-03-01T12:13:22.895Z,17.60
2019-03-01T12:15:52.638Z,21.33
2019-03-01T12:18:21.496Z,21.00
2019-03-01T12:20:50.281Z,21.77
2019-03-01T12:23:19.147Z,22.67
2019-03-01T12:25:48.039Z,22.20
2019-03-01T12:28:16.965Z,25.73
2019-03-01T12:30:45.787Z,25.97
2019-03-01T12:33:17.319Z,27.83
2019-03-01T12:35:46.243Z,28.93
2019-03-01T12:38:15.205Z,24.20
2019-03-01T12:40:44.258Z,29.63
2019-03-01T12:43:13.182Z,31.30
2019-03-01T12:45:42.214Z,31.27
2019-03-01T12:48:11.146Z,29.73
2019-03-01T12:50:40.197Z,31.20
2019-03-01T12:53:09.069Z,32.90
2019-03-01T12:55:37.975Z,31.93
2019-03-01T12:58:07.017Z,30.57
2019-03-01T13:00:36.138Z,32.53
2019-03-01T13:03:08.895Z,34.53
2019-03-01T13:05:35.678Z,36.67
2019-03-01T13:08:05.063Z,32.07
2019-03-01T13:10:36.880Z,39.43
2019-03-01T13:13:08.071Z,39.20
2019-03-01T13:15:35.626Z,38.67
2019-03-01T13:18:04.680Z,38.27
2019-03-01T13:20:36.729Z,36.83
2019-03-01T13:23:06.039Z,30.10
2019-03-01T13:25:35.230Z,40.33
2019-03-01T13:28:04.295Z,37.90
2019-03-01T13:30:35.830Z,31.50
2019-03-01T13:33:04.012Z,36.70
2019-03-01T13:35:32.961Z,37.10
2019-03-01T13:38:03.894Z,41.40
2019-03-01T13:40:33.030Z,37.57
2019-03-01T13:43:02.067Z,38.50
2019-03-01T13:45:31.007Z,41.83
2019-03-01T13:48:00.010Z,41.60
2019-03-01T13:50:28.895Z,38.47
2019-03-01T13:52:57.793Z,39.57
2019-03-01T13:55:27.689Z,28.87
2019-03-01T13:57:56.806Z,39.33
2019-03-01T14:00:27.255Z,28.00
2019-03-01T14:02:56.221Z,41.10
2019-03-01T14:05:25.231Z,41.83
2019-03-01T14:07:56.765Z,33.30
2019-03-01T14:10:24.998Z,35.03
2019-03-01T14:12:53.925Z,36.73
2019-03-01T14:15:22.876Z,38.47
2019-03-01T14:17:51.810Z,31.43
2019-03-01T14:20:21.258Z,33.63
2019-03-01T14:22:50.436Z,33.50
2019-03-01T14:25:19.420Z,33.03
2019-03-01T14:27:48.632Z,34.87
2019-03-01T14:30:19.648Z,32.97
2019-03-01T14:32:48.727Z,31.47
2019-03-01T14:35:20.470Z,30.13
2019-03-01T14:37:54.236Z,33.67
2019-03-01T14:40:22.391Z,32.07
2019-03-01T14:42:49.881Z,30.87
2019-03-01T14:45:20.936Z,30.80
2019-03-01T14:47:49.942Z,34.10
2019-03-01T14:50:20.367Z,34.23
2019-03-01T14:52:49.362Z,31.30
2019-03-01T14:55:23.079Z,33.30
2019-03-01T14:57:59.049Z,32.43
2019-03-01T15:00:49.652Z,29.73
2019-03-01T15:03:30.836Z,32.57
2019-03-01T15:06:00.035Z,33.50
2019-03-01T15:08:29.192Z,35.47
2019-03-01T15:10:59.805Z,32.43
2019-03-01T15:13:31.370Z,30.47
2019-03-01T15:16:01.051Z,28.67
2019-03-01T15:18:32.320Z,31.60
2019-03-01T15:21:02.533Z,34.27
2019-03-01T15:23:31.897Z,32.27
2019-03-01T15:26:00.978Z,20.70
2019-03-01T15:28:30.032Z,32.23
2019-03-01T15:30:58.967Z,31.90
2019-03-01T15:33:27.909Z,31.47
2019-03-01T15:35:56.776Z,28.87
2019-03-01T15:38:27.791Z,31.20
2019-03-01T15:40:57.723Z,27.63
2019-03-01T15:43:29.912Z,29.57
2019-03-01T15:45:59.316Z,21.73
2019-03-01T15:48:30.142Z,31.53
2019-03-01T15:51:02.412Z,24.40
2019-03-01T15:53:30.620Z,31.20
2019-03-01T15:56:02.104Z,29.80
2019-03-01T15:58:33.281Z,32.07
2019-03-01T16:01:01.343Z,30.17
2019-03-01T16:03:30.265Z,28.73
2019-03-01T16:05:59.125Z,30.57
2019-03-01T16:08:27.980Z,30.00
2019-03-01T16:10:56.860Z,31.07
2019-03-01T16:13:25.866Z,30.00
2019-03-01T16:15:54.886Z,31.20
2019-03-01T16:18:24.003Z,27.23
2019-03-01T16:20:53.052Z,31.53
2019-03-01T16:23:21.923Z,29.57
2019-03-01T16:25:53.090Z,30.00
2019-03-01T16:28:22.071Z,31.43
2019-03-01T16:30:53.215Z,29.73
2019-03-01T16:33:22.424Z,30.23
2019-03-01T16:35:52.599Z,31.40
2019-03-01T16:38:21.502Z,31.73
2019-03-01T16:40:50.506Z,27.47
2019-03-01T16:43:19.403Z,29.77
2019-03-01T16:45:48.200Z,30.40
2019-03-01T16:48:17.785Z,30.33
2019-03-01T16:50:46.921Z,24.80
2019-03-01T16:53:16.003Z,26.27
2019-03-01T16:55:45.036Z,28.10
2019-03-01T16:58:14.038Z,22.77
2019-03-01T17:00:43.004Z,26.63
2019-03-01T17:03:16.762Z,28.90
2019-03-01T17:05:42.771Z,28.80
2019-03-01T17:08:12.588Z,29.52
2019-03-01T17:10:41.635Z,30.70
2019-03-01T17:13:10.637Z,28.57
2019-03-01T17:15:39.593Z,29.15
2019-03-01T17:18:12.208Z,28.45
2019-03-01T17:20:39.430Z,27.87
2019-03-01T17:23:08.326Z,28.13
2019-03-01T17:25:37.294Z,25.07
2019-03-01T17:28:06.213Z,26.40
2019-03-01T17:30:35.269Z,27.93
2019-03-01T17:33:04.226Z,27.20
2019-03-01T17:35:33.166Z,21.67
2019-03-01T17:38:04.096Z,21.30
2019-03-01T17:40:33.521Z,19.60
2019-03-01T17:43:02.692Z,19.90
2019-03-01T17:45:31.657Z,17.23
2019-03-01T17:48:00.586Z,18.17
2019-03-01T17:50:29.583Z,17.40
2019-03-01T17:52:58.560Z,18.40
2019-03-01T17:55:27.571Z,21.00
2019-03-01T17:57:56.560Z,22.27
2019-03-01T18:00:31.176Z,21.33
2019-03-01T18:03:00.180Z,21.77
2019-03-01T18:05:29.482Z,21.00
2019-03-01T18:07:59.980Z,20.23
2019-03-01T18:10:32.154Z,19.53
2019-03-01T18:12:59.945Z,17.80
2019-03-01T18:15:29.067Z,18.27
2019-03-01T18:17:57.998Z,13.67
2019-03-01T18:20:26.824Z,14.80
2019-03-01T18:22:55.710Z,12.93
2019-03-01T18:25:26.385Z,15.57
2019-03-01T18:27:55.359Z,15.13
2019-03-01T18:30:24.362Z,16.90
2019-03-01T18:32:53.366Z,12.70
2019-03-01T18:35:22.200Z,16.13
2019-03-01T18:37:54.794Z,15.13
2019-03-01T18:40:21.957Z,13.40
2019-03-01T18:42:50.940Z,15.10
2019-03-01T18:45:19.952Z,11.60
2019-03-01T18:47:48.991Z,14.23
2019-03-01T18:50:20.930Z,13.93
2019-03-01T18:52:53.189Z,11.00
2019-03-01T18:55:20.713Z,7.83
2019-03-01T18:57:49.592Z,8.87
2019-03-01T19:00:21.415Z,8.87
2019-03-01T19:02:50.372Z,8.03
2019-03-01T19:05:19.367Z,8.37
2019-03-01T19:07:48.169Z,6.27
2019-03-01T19:10:17.343Z,8.57
2019-03-01T19:12:48.603Z,7.97
2019-03-01T19:15:17.015Z,7.47
2019-03-01T19:17:46.277Z,8.53
2019-03-01T19:20:17.730Z,5.47
2019-03-01T19:22:46.676Z,6.87
2019-03-01T19:25:16.103Z,9.10
2019-03-01T19:27:47.193Z,11.73
2019-03-01T19:30:17.642Z,9.43
2019-03-01T19:32:46.609Z,10.57
2019-03-01T19:35:15.629Z,9.03
2019-03-01T19:37:45.843Z,10.00
2019-03-01T19:40:16.849Z,10.33
2019-03-01T19:42:46.047Z,9.70
2019-03-01T19:45:16.353Z,10.13
2019-03-01T19:47:46.454Z,9.63
2019-03-01T19:50:17.231Z,10.33
2019-03-01T19:52:46.958Z,10.00
2019-03-01T19:55:16.978Z,9.90
2019-03-01T19:57:45.918Z,9.83
2019-03-01T20:00:17.165Z,10.47
2019-03-01T20:02:46.364Z,7.37
2019-03-01T20:05:16.817Z,9.93
2019-03-01T20:07:45.793Z,9.87
2019-03-01T20:10:16.064Z,10.83
2019-03-01T20:12:47.561Z,11.17
2019-03-01T20:15:20.437Z,12.40
2019-03-01T20:17:49.465Z,13.37
2019-03-01T20:20:19.390Z,13.60
2019-03-01T20:22:50.595Z,14.90
2019-03-01T20:25:19.341Z,15.77
2019-03-01T20:27:48.331Z,16.47
2019-03-01T20:30:28.481Z,17.80
2019-03-01T20:32:52.820Z,16.13
2019-03-01T20:35:21.846Z,16.55
2019-03-01T20:37:51.104Z,16.47
2019-03-01T20:40:22.780Z,16.43
2019-03-01T20:42:50.771Z,16.15
2019-03-01T20:45:22.200Z,15.70
2019-03-01T20:47:53.533Z,15.80
2019-03-01T20:50:21.930Z,15.45
2019-03-01T20:52:50.938Z,16.90
2019-03-01T20:55:19.893Z,17.47
2019-03-01T20:57:48.930Z,21.63
2019-03-01T21:00:18.367Z,17.90
2019-03-01T21:02:50.227Z,19.20
2019-03-01T21:05:21.035Z,17.70
2019-03-01T21:07:53.777Z,16.63
2019-03-01T21:10:21.805Z,17.57
2019-03-01T21:12:50.737Z,18.97
2019-03-01T21:15:21.360Z,17.67
2019-03-01T21:17:53.093Z,18.70
2019-03-01T21:20:21.421Z,18.23
2019-03-01T21:22:50.421Z,18.33
2019-03-01T21:25:19.645Z,18.60
2019-03-01T21:27:48.729Z,18.50
2019-03-01T21:30:24.107Z,18.57
2019-03-01T21:32:53.610Z,17.43
2019-03-01T21:35:22.594Z,17.63
2019-03-01T21:37:51.773Z,19.07
2019-03-01T21:40:20.719Z,19.47
2019-03-01T21:42:52.994Z,18.90
2019-03-01T21:45:21.472Z,21.13
2019-03-01T21:47:51.399Z,19.53
2019-03-01T21:50:20.423Z,19.17
2019-03-01T21:52:49.346Z,21.57
2019-03-01T21:55:18.313Z,21.30
2019-03-01T21:57:47.302Z,19.20
2019-03-01T22:00:18.410Z,19.37
2019-03-01T22:02:48.819Z,21.07
2019-03-01T22:05:18.517Z,22.40
2019-03-01T22:07:47.571Z,19.47
2019-03-01T22:10:16.755Z,21.50
2019-03-01T22:12:45.683Z,22.30
2019-03-01T22:15:21.546Z,20.07
2019-03-01T22:17:50.870Z,21.05
2019-03-01T22:20:19.803Z,20.27
2019-03-01T22:22:48.828Z,20.25
2019-03-01T22:25:18.428Z,17.98
2019-03-01T22:27:47.356Z,19.93
2019-03-01T22:30:23.056Z,19.37
2019-03-01T22:32:52.666Z,20.32
2019-03-01T22:35:22.250Z,20.73
2019-03-01T22:37:51.155Z,20.97
2019-03-01T22:40:27.623Z,20.03
2019-03-01T22:43:03.891Z,22.30
2019-03-01T22:45:41.753Z,20.37
2019-03-01T22:48:14.997Z,20.13
2019-03-01T22:50:43.887Z,20.17
2019-03-01T22:53:12.815Z,19.77
2019-03-01T22:55:41.923Z,22.13
2019-03-01T22:58:10.769Z,19.43
2019-03-01T23:01:03.904Z,21.13
2019-03-01T23:03:32.906Z,24.97
2019-03-01T23:06:02.180Z,24.27
2019-03-01T23:08:31.691Z,21.37
2019-03-01T23:11:01.919Z,22.80
2019-03-01T23:13:30.805Z,21.30
2019-03-01T23:15:59.810Z,22.93
2019-03-01T23:18:28.807Z,20.40
2019-03-01T23:21:00.944Z,20.57
2019-03-01T23:23:28.306Z,20.30
2019-03-01T23:25:57.289Z,19.03
2019-03-01T23:28:26.135Z,19.13
2019-03-01T23:30:54.962Z,21.07
2019-03-01T23:33:23.947Z,19.57
2019-03-01T23:35:53.857Z,19.30
2019-03-01T23:38:22.887Z,18.97
2019-03-01T23:40:52.270Z,19.27
2019-03-01T23:43:21.187Z,19.27
2019-03-01T23:45:53.327Z,19.40
2019-03-01T23:48:20.605Z,18.27
2019-03-01T23:50:49.636Z,19.03
2019-03-01T23:53:18.675Z,19.27
2019-03-01T23:55:50.995Z,19.27
2019-03-01T23:58:18.323Z,19.03
